Time;durP1;ratioP1;P1;durP2;ratioP2;P2;SDS_P1;SDS_P2;PMS_P1;PMS_P2;Temp;Humidity;BMP_temperature;BMP_pressure;BME280_temperature;BME280_humidity;BME280_pressure;Samples;Min_cycle;Max_cycle;Signal;HPM_P1;HPM_P2
2021/07/28 00:03:43;;;;;;;;;;;;;;;;;;10309380;28;20340;-64
2021/07/28 00:08:40;;;;;;;;;;;;;;;;;;10330999;28;19931;-64
2021/07/28 00:13:37;;;;;;;;;;;;;;;;;;10335089;28;19916;-63
2021/07/28 00:23:47;;;;;;;;;;;;;;;;;;10329353;28;20333;-63
2021/07/28 00:28:44;;;;;;;;;;;;;;;;;;10320444;28;19925;-64
2021/07/28 00:33:42;;;;;;;;;;;;;;;;;;10326625;28;19916;-63
2021/07/28 00:38:39;;;;;;;;;;;;;;;;;;10316204;28;20185;-64
2021/07/28 00:43:36;;;;;;;;;;;;;;;;;;10333685;28;19921;-63
2021/07/28 00:48:35;;;;;;;;;;;;;;;;;;10322791;28;20019;-64
2021/07/28 00:53:32;;;;;;;;;;;;;;;;;;10320836;28;20976;-64
2021/07/28 00:58:31;;;;;;;;;;;;;;;;;;10323283;28;19921;-64
2021/07/28 01:03:28;;;;;;;;;;;;;;;;;;10308359;28;20571;-64
2021/07/28 01:08:25;;;;;;;;;;;;;;;;;;10311829;28;19986;-64
2021/07/28 01:13:28;;;;;;;;;;;;;;;;;;10322106;28;20413;-64
2021/07/28 01:18:25;;;;;;;;;;;;;;;;;;10322409;28;19977;-63
2021/07/28 01:23:22;;;;;;;;;;;;;;;;;;10334530;28;20397;-65
2021/07/28 01:28:19;;;;;;;;;;;;;;;;;;10340230;28;19925;-66
2021/07/28 01:33:17;;;;;;;;;;;;;;;;;;10326731;28;20012;-65
2021/07/28 01:38:14;;;;;;;;;;;;;;;;;;10320407;28;20010;-65
2021/07/28 01:43:11;;;;;;;;;;;;;;;;;;10316948;28;19924;-63
2021/07/28 01:48:08;;;;;;;;;;;;;;;;;;10338097;28;19924;-62
2021/07/28 01:53:06;;;;;;;;;;;;;;;;;;10333073;28;20047;-63
2021/07/28 01:58:03;;;;;;;;;;;;;;;;;;10317339;28;19981;-64
2021/07/28 02:03:03;;;;;;;;;;;;;;;;;;10325356;28;20275;-64
2021/07/28 02:08:07;;;;;;;;;;;;;;;;;;10321868;28;20297;-64
2021/07/28 02:13:04;;;;;;;;;;;;;;;;;;10320821;28;19948;-62
2021/07/28 02:18:01;;;;;;;;;;;;;;;;;;10328626;28;20401;-63
2021/07/28 02:22:59;;;;;;;;;;;;;;;;;;10322757;28;19921;-63
2021/07/28 02:27:56;;;;;;;;;;;;;;;;;;10312209;28;19925;-63
2021/07/28 02:32:53;;;;;;;;;;;;;;;;;;10315508;28;19956;-63
2021/07/28 02:37:50;;;;;;;;;;;;;;;;;;10316387;28;19939;-65
2021/07/28 02:42:48;;;;;;;;;;;;;;;;;;10323699;28;20297;-65
2021/07/28 02:47:45;;;;;;;;;;;;;;;;;;10317818;28;21665;-64
2021/07/28 02:52:42;;;;;;;;;;;;;;;;;;10319354;28;20371;-64
2021/07/28 02:57:39;;;;;;;;;;;;;;;;;;10307793;28;19944;-65
2021/07/28 03:02:37;;;;;;;;;;;;;;;;;;10309176;28;19923;-63
2021/07/28 03:07:34;;;;;;;;;;;;;;;;;;10326034;28;20302;-64
2021/07/28 03:12:31;;;;;;;;;;;;;;;;;;10328986;28;19936;-65
2021/07/28 03:17:29;;;;;;;;;;;;;;;;;;10329671;28;20334;-63
2021/07/28 03:22:26;;;;;;;;;;;;;;;;;;10322301;28;19999;-63
2021/07/28 03:27:24;;;;;;;;;;;;;;;;;;10314101;28;19917;-63
2021/07/28 03:32:21;;;;;;;;;;;;;;;;;;10321327;28;19913;-63
2021/07/28 03:37:18;;;;;;;;;;;;;;;;;;10311688;28;20400;-63
2021/07/28 03:42:16;;;;;;;;;;;;;;;;;;10309150;28;19917;-63
2021/07/28 03:47:13;;;;;;;;;;;;;;;;;;10328194;28;19947;-63
2021/07/28 03:52:10;;;;;;;;;;;;;;;;;;10317556;28;19928;-63
2021/07/28 03:57:07;;;;;;;;;;;;;;;;;;10326142;28;19924;-63
2021/07/28 04:02:05;;;;;;;;;;;;;;;;;;10301759;28;19917;-63
2021/07/28 04:07:02;;;;;;;;;;;;;;;;;;10326422;28;19984;-63
2021/07/28 04:11:59;;;;;;;;;;;;;;;;;;10323302;28;19920;-63
2021/07/28 04:16:56;;;;;;;;;;;;;;;;;;10321803;28;20456;-64
2021/07/28 04:21:54;;;;;;;;;;;;;;;;;;10312013;28;19921;-63
2021/07/28 04:26:51;;;;;;;;;;;;;;;;;;10313458;28;20481;-63
2021/07/28 04:31:48;;;;;;;;;;;;;;;;;;10324142;28;19929;-63
2021/07/28 04:36:45;;;;;;;;;;;;;;;;;;10325051;28;20481;-63
2021/07/28 04:41:45;;;;;;;;;;;;;;;;;;10317393;28;19943;-64
2021/07/28 04:46:42;;;;;;;;;;;;;;;;;;10342885;28;19924;-65
2021/07/28 04:51:40;;;;;;;;;;;;;;;;;;10322602;28;19925;-65
2021/07/28 04:56:37;;;;;;;;;;;;;;;;;;10323032;28;19920;-65
2021/07/28 05:01:34;;;;;;;;;;;;;;;;;;10327560;28;19917;-63
2021/07/28 05:06:31;;;;;;;;;;;;;;;;;;10309770;28;19947;-63
2021/07/28 05:11:29;;;;;;;;;;;;;;;;;;10323559;28;19948;-62
2021/07/28 05:16:26;;;;;;;;;;;;;;;;;;10319279;28;19925;-63
2021/07/28 05:21:23;;;;;;;;;;;;;;;;;;10324362;28;20267;-63
2021/07/28 05:26:21;;;;;;;;;;;;;;;;;;10313553;28;19925;-63
2021/07/28 05:31:18;;;;;;;;;;;;;;;;;;10311077;28;19921;-65
2021/07/28 05:36:15;;;;;;;;;;;;;;;;;;10305079;28;19925;-64
2021/07/28 05:41:13;;;;;;;;;;;;;;;;;;10331310;28;19943;-63
2021/07/28 05:46:10;;;;;;;;;;;;;;;;;;10318645;28;19932;-62
2021/07/28 05:51:07;;;;;;;;;;;;;;;;;;10309946;28;19932;-63
2021/07/28 05:56:04;;;;;;;;;;;;;;;;;;10311256;28;19925;-63
2021/07/28 06:01:02;;;;;;;;;;;;;;;;;;10315004;28;19923;-65
2021/07/28 06:05:59;;;;;;;;;;;;;;;;;;10316680;28;19917;-65
2021/07/28 06:10:57;;;;;;;;;;;;;;;;;;10316242;28;20505;-62
2021/07/28 06:15:54;;;;;;;;;;;;;;;;;;10322085;28;19931;-62
2021/07/28 06:20:52;;;;;;;;;;;;;;;;;;10313248;28;20390;-62
2021/07/28 06:25:49;;;;;;;;;;;;;;;;;;10320751;28;20003;-64
2021/07/28 06:30:47;;;;;;;;;;;;;;;;;;10320828;28;19920;-64
2021/07/28 06:35:44;;;;;;;;;;;;;;;;;;10338360;28;19917;-63
2021/07/28 06:40:41;;;;;;;;;;;;;;;;;;10318375;28;20075;-63
2021/07/28 06:45:38;;;;;;;;;;;;;;;;;;10322117;28;19939;-63
2021/07/28 06:50:36;;;;;;;;;;;;;;;;;;10318435;28;19921;-62
2021/07/28 06:55:34;;;;;;;;;;;;;;;;;;10329675;28;19924;-64
2021/07/28 07:00:32;;;;;;;;;;;;;;;;;;10321987;28;20269;-63
2021/07/28 07:05:30;;;;;;;;;;;;;;;;;;10303616;28;19929;-62
2021/07/28 07:10:27;;;;;;;;;;;;;;;;;;10317087;28;19936;-61
2021/07/28 07:15:24;;;;;;;;;;;;;;;;;;10330942;28;19954;-62
2021/07/28 07:20:21;;;;;;;;;;;;;;;;;;10317115;28;19932;-62
2021/07/28 07:25:20;;;;;;;;;;;;;;;;;;10326994;28;20327;-62
2021/07/28 07:30:17;;;;;;;;;;;;;;;;;;10317278;28;19929;-60
2021/07/28 07:35:14;;;;;;;;;;;;;;;;;;10337727;28;19925;-61
2021/07/28 07:40:12;;;;;;;;;;;;;;;;;;10319409;28;19917;-61
2021/07/28 07:45:09;;;;;;;;;;;;;;;;;;10322070;28;20556;-60
2021/07/28 07:50:06;;;;;;;;;;;;;;;;;;10297625;28;20279;-62
2021/07/28 07:55:04;;;;;;;;;;;;;;;;;;10299181;28;20078;-62
2021/07/28 08:00:01;;;;;;;;;;;;;;;;;;10332587;28;19924;-63
2021/07/28 08:05:01;;;;;;;;;;;;;;;;;;10335432;28;20003;-63
2021/07/28 08:09:58;;;;;;;;;;;;;;;;;;10315266;28;20023;-63
2021/07/28 08:14:56;;;;;;;;;;;;;;;;;;10305060;28;19928;-62
2021/07/28 08:19:53;;;;;;;;;;;;;;;;;;10319855;28;19921;-62
2021/07/28 08:24:51;;;;;;;;;;;;;;;;;;10311773;28;19947;-63
2021/07/28 08:29:48;;;;;;;;;;;;;;;;;;10309725;28;19999;-62
2021/07/28 08:34:45;;;;;;;;;;;;;;;;;;10303087;28;19925;-63
2021/07/28 08:39:42;;;;;;;;;;;;;;;;;;10313092;28;19943;-62
2021/07/28 08:44:40;;;;;;;;;;;;;;;;;;10295588;28;19925;-63
2021/07/28 08:49:37;;;;;;;;;;;;;;;;;;10311770;28;19925;-63
2021/07/28 08:54:35;;;;;;;;;;;;;;;;;;10318913;28;20415;-63
2021/07/28 08:59:32;;;;;;;;;;;;;;;;;;10312545;28;19920;-63
2021/07/28 09:04:29;;;;;;;;;;;;;;;;;;10326079;28;20381;-63
2021/07/28 09:09:26;;;;;;;;;;;;;;;;;;10320854;28;19925;-64
2021/07/28 09:14:26;;;;;;;;;;;;;;;;;;10319527;28;19948;-64
2021/07/28 09:19:23;;;;;;;;;;;;;;;;;;10315422;28;20014;-64
2021/07/28 09:24:20;;;;;;;;;;;;;;;;;;10315823;28;19921;-65
2021/07/28 09:29:18;;;;;;;;;;;;;;;;;;10317333;28;19967;-65
2021/07/28 09:34:19;;;;;;;;;;;;;;;;;;10316203;28;19920;-65
2021/07/28 09:39:16;;;;;;;;;;;;;;;;;;10314767;28;19924;-64
2021/07/28 09:44:14;;;;;;;;;;;;;;;;;;10316608;28;19970;-64
2021/07/28 09:49:11;;;;;;;;;;;;;;;;;;10311596;28;19925;-63
2021/07/28 09:54:08;;;;;;;;;;;;;;;;;;10322249;28;19924;-64
2021/07/28 09:59:05;;;;;;;;;;;;;;;;;;10319086;28;19993;-64
2021/07/28 10:04:03;;;;;;;;;;;;;;;;;;10314082;28;19921;-63
2021/07/28 10:09:00;;;;;;;;;;;;;;;;;;10317045;28;19951;-61
2021/07/28 10:13:58;;;;;;;;;;;;;;;;;;10321324;28;20357;-63
2021/07/28 10:18:55;;;;;;;;;;;;;;;;;;10300045;28;20397;-62
2021/07/28 10:23:52;;;;;;;;;;;;;;;;;;10318486;28;19920;-62
2021/07/28 10:28:50;;;;;;;;;;;;;;;;;;10311776;28;19921;-62
2021/07/28 10:33:47;;;;;;;;;;;;;;;;;;10333445;28;19970;-63
2021/07/28 10:38:44;;;;;;;;;;;;;;;;;;10324242;28;20020;-64
2021/07/28 10:43:42;;;;;;;;;;;;;;;;;;10318235;28;19916;-64
2021/07/28 10:48:39;;;;;;;;;;;;;;;;;;10322514;28;19937;-62
2021/07/28 10:53:36;;;;;;;;;;;;;;;;;;10312903;28;20321;-61
2021/07/28 10:58:33;;;;;;;;;;;;;;;;;;10299453;28;20350;-62
2021/07/28 11:03:31;;;;;;;;;;;;;;;;;;10297681;28;19921;-62
2021/07/28 11:08:28;;;;;;;;;;;;;;;;;;10321598;28;20007;-62
2021/07/28 11:13:25;;;;;;;;;;;;;;;;;;10316494;28;19995;-62
2021/07/28 11:18:22;;;;;;;;;;;;;;;;;;10309666;28;19939;-63
2021/07/28 11:23:20;;;;;;;;;;;;;;;;;;10325242;28;19920;-63
2021/07/28 11:28:19;;;;;;;;;;;;;;;;;;10324112;28;19974;-61
2021/07/28 11:33:16;;;;;;;;;;;;;;;;;;10290925;28;19917;-62
2021/07/28 11:38:13;;;;;;;;;;;;;;;;;;10317867;28;19921;-61
2021/07/28 11:43:11;;;;;;;;;;;;;;;;;;10303993;28;19917;-62
2021/07/28 11:48:08;;;;;;;;;;;;;;;;;;10309179;28;20003;-61
2021/07/28 11:53:05;;;;;;;;;;;;;;;;;;10344442;28;20016;-62
2021/07/28 11:58:02;;;;;;;;;;;;;;;;;;10307666;28;19971;-62
2021/07/28 12:03:00;;;;;;;;;;;;;;;;;;10325483;28;19950;-63
2021/07/28 12:07:57;;;;;;;;;;;;;;;;;;10317782;28;19996;-62
2021/07/28 12:12:54;;;;;;;;;;;;;;;;;;10322152;28;19917;-63
2021/07/28 12:17:51;;;;;;;;;;;;;;;;;;10323281;28;19990;-62
2021/07/28 12:22:49;;;;;;;;;;;;;;;;;;10314279;28;19919;-62
2021/07/28 12:27:46;;;;;;;;;;;;;;;;;;10314250;28;19921;-61
2021/07/28 12:32:44;;;;;;;;;;;;;;;;;;10321732;28;20046;-62
2021/07/28 12:37:41;;;;;;;;;;;;;;;;;;10325016;28;19909;-62
2021/07/28 12:42:38;;;;;;;;;;;;;;;;;;10313384;28;19913;-63
2021/07/28 12:47:35;;;;;;;;;;;;;;;;;;10309105;28;19909;-63
2021/07/28 12:52:32;;;;;;;;;;;;;;;;;;10308825;28;19916;-62
2021/07/28 12:57:30;;;;;;;;;;;;;;;;;;10307378;28;20022;-63
2021/07/28 13:02:27;;;;;;;;;;;;;;;;;;10327293;28;20828;-63
2021/07/28 13:07:35;;;;;;;;;;;;;;;;;;10308237;28;19918;-62
2021/07/28 13:12:32;;;;;;;;;;;;;;;;;;10289507;28;19916;-62
2021/07/28 13:17:30;;;;;;;;;;;;;;;;;;10317628;28;20543;-62
2021/07/28 13:22:27;;;;;;;;;;;;;;;;;;10323795;28;19921;-63
2021/07/28 13:27:24;;;;;;;;;;;;;;;;;;10321247;28;19917;-61
2021/07/28 13:32:22;;;;;;;;;;;;;;;;;;10317664;28;19921;-62
2021/07/28 13:37:19;;;;;;;;;;;;;;;;;;10326387;28;19917;-62
2021/07/28 13:42:16;;;;;;;;;;;;;;;;;;10323440;28;20343;-62
2021/07/28 13:47:14;;;;;;;;;;;;;;;;;;10302012;28;20421;-61
2021/07/28 13:52:11;;;;;;;;;;;;;;;;;;10323919;28;19929;-61
2021/07/28 13:57:08;;;;;;;;;;;;;;;;;;10302333;28;19961;-61
2021/07/28 14:02:06;;;;;;;;;;;;;;;;;;10302234;28;19917;-62
2021/07/28 14:07:03;;;;;;;;;;;;;;;;;;10303486;28;19991;-61
2021/07/28 14:12:00;;;;;;;;;;;;;;;;;;10335487;28;20022;-61
2021/07/28 14:16:58;;;;;;;;;;;;;;;;;;10320851;28;19967;-62
2021/07/28 14:21:55;;;;;;;;;;;;;;;;;;10322957;28;19939;-62
2021/07/28 14:26:52;;;;;;;;;;;;;;;;;;10312229;28;20394;-62
2021/07/28 14:31:49;;;;;;;;;;;;;;;;;;10327149;28;19986;-62
2021/07/28 14:36:47;;;;;;;;;;;;;;;;;;10315511;28;20608;-62
2021/07/28 14:41:44;;;;;;;;;;;;;;;;;;10310650;28;20405;-62
2021/07/28 14:46:42;;;;;;;;;;;;;;;;;;10328219;28;20331;-62
2021/07/28 14:51:39;;;;;;;;;;;;;;;;;;10314990;28;19921;-62
2021/07/28 14:56:37;;;;;;;;;;;;;;;;;;10312259;28;20310;-61
2021/07/28 15:01:35;;;;;;;;;;;;;;;;;;10328371;28;19925;-62
2021/07/28 15:06:32;;;;;;;;;;;;;;;;;;10291324;28;19917;-62
2021/07/28 15:11:29;;;;;;;;;;;;;;;;;;10328867;28;20215;-63
2021/07/28 15:16:26;;;;;;;;;;;;;;;;;;10327427;28;19921;-62
2021/07/28 15:21:24;;;;;;;;;;;;;;;;;;10308273;28;19917;-63
2021/07/28 15:26:21;;;;;;;;;;;;;;;;;;10316044;28;19932;-62
2021/07/28 15:31:18;;;;;;;;;;;;;;;;;;10287547;28;19925;-63
2021/07/28 15:36:15;;;;;;;;;;;;;;;;;;10329565;28;20088;-62
2021/07/28 15:41:13;;;;;;;;;;;;;;;;;;10323933;28;19925;-62
2021/07/28 15:46:10;;;;;;;;;;;;;;;;;;10317432;28;19924;-62
2021/07/28 15:51:07;;;;;;;;;;;;;;;;;;10297120;28;19967;-62
2021/07/28 15:56:04;;;;;;;;;;;;;;;;;;10319048;28;20306;-62
2021/07/28 16:01:02;;;;;;;;;;;;;;;;;;10301756;28;19916;-63
2021/07/28 16:05:59;;;;;;;;;;;;;;;;;;10306469;28;20366;-62
2021/07/28 16:10:56;;;;;;;;;;;;;;;;;;10322548;28;19924;-62
2021/07/28 16:15:54;;;;;;;;;;;;;;;;;;10306368;28;20511;-62
2021/07/28 16:20:51;;;;;;;;;;;;;;;;;;10320447;28;20406;-62
2021/07/28 16:25:48;;;;;;;;;;;;;;;;;;10323083;28;20287;-62
2021/07/28 16:30:45;;;;;;;;;;;;;;;;;;10303316;28;19947;-62
2021/07/28 16:35:43;;;;;;;;;;;;;;;;;;10320910;28;20019;-62
2021/07/28 16:40:40;;;;;;;;;;;;;;;;;;10318924;28;19921;-62
2021/07/28 16:45:37;;;;;;;;;;;;;;;;;;10314154;28;19921;-62
2021/07/28 16:50:35;;;;;;;;;;;;;;;;;;10315968;28;20245;-61
2021/07/28 16:55:32;;;;;;;;;;;;;;;;;;10317606;28;19920;-62
2021/07/28 17:00:29;;;;;;;;;;;;;;;;;;10310803;28;19927;-62
2021/07/28 17:05:28;;;;;;;;;;;;;;;;;;10308782;28;20230;-62
2021/07/28 17:10:25;;;;;;;;;;;;;;;;;;10308106;28;19933;-62
2021/07/28 17:15:22;;;;;;;;;;;;;;;;;;10320056;28;19924;-62
2021/07/28 17:20:20;;;;;;;;;;;;;;;;;;10327802;28;20020;-61
2021/07/28 17:25:17;;;;;;;;;;;;;;;;;;10325904;28;19925;-61
2021/07/28 17:30:14;;;;;;;;;;;;;;;;;;10321891;28;19925;-62
2021/07/28 17:35:12;;;;;;;;;;;;;;;;;;10319203;28;19967;-62
2021/07/28 17:40:09;;;;;;;;;;;;;;;;;;10304430;28;19927;-60
2021/07/28 17:45:06;;;;;;;;;;;;;;;;;;10316134;28;19964;-61
2021/07/28 17:50:04;;;;;;;;;;;;;;;;;;10314512;28;19924;-61
2021/07/28 17:55:01;;;;;;;;;;;;;;;;;;10326997;28;19939;-61
2021/07/28 17:59:59;;;;;;;;;;;;;;;;;;10294232;28;20366;-62
2021/07/28 18:04:56;;;;;;;;;;;;;;;;;;10311393;28;19924;-61
2021/07/28 18:09:54;;;;;;;;;;;;;;;;;;10316725;28;19944;-62
2021/07/28 18:14:51;;;;;;;;;;;;;;;;;;10317702;28;20576;-62
2021/07/28 18:19:50;;;;;;;;;;;;;;;;;;10314841;28;19920;-62
2021/07/28 18:24:47;;;;;;;;;;;;;;;;;;10326358;28;19917;-61
2021/07/28 18:29:45;;;;;;;;;;;;;;;;;;10306725;28;20294;-64
2021/07/28 18:34:42;;;;;;;;;;;;;;;;;;10310604;28;20268;-63
2021/07/28 18:39:39;;;;;;;;;;;;;;;;;;10306424;28;19917;-62
2021/07/28 18:44:37;;;;;;;;;;;;;;;;;;10309755;28;20034;-62
2021/07/28 18:49:34;;;;;;;;;;;;;;;;;;10315696;28;19928;-62
2021/07/28 18:54:31;;;;;;;;;;;;;;;;;;10315096;28;19925;-61
2021/07/28 18:59:29;;;;;;;;;;;;;;;;;;10313807;28;20291;-62
2021/07/28 19:04:26;;;;;;;;;;;;;;;;;;10302959;28;19924;-62
2021/07/28 19:09:24;;;;;;;;;;;;;;;;;;10311014;28;19928;-62
2021/07/28 19:14:21;;;;;;;;;;;;;;;;;;10309639;28;20028;-62
2021/07/28 19:19:18;;;;;;;;;;;;;;;;;;10295215;28;20305;-62
2021/07/28 19:24:16;;;;;;;;;;;;;;;;;;10309944;28;19917;-62
2021/07/28 19:29:13;;;;;;;;;;;;;;;;;;10322267;28;19920;-62
2021/07/28 19:34:10;;;;;;;;;;;;;;;;;;10325776;28;20015;-62
2021/07/28 19:39:08;;;;;;;;;;;;;;;;;;10331746;28;20031;-62
2021/07/28 19:44:05;;;;;;;;;;;;;;;;;;10329998;28;19917;-62
2021/07/28 19:54:26;;;;;;;;;;;;;;;;;;10238746;28;20031;-63
2021/07/28 19:59:23;;;;;;;;;;;;;;;;;;10240616;28;19921;-62
2021/07/28 20:04:21;;;;;;;;;;;;;;;;;;10235520;28;19985;-62
2021/07/28 20:09:18;;;;;;;;;;;;;;;;;;10240312;28;20020;-62
2021/07/28 20:14:15;;;;;;;;;;;;;;;;;;10234663;28;19928;-63
2021/07/28 20:19:12;;;;;;;;;;;;;;;;;;10245131;28;19926;-63
2021/07/28 20:24:10;;;;;;;;;;;;;;;;;;10241161;28;19918;-62
2021/07/28 20:29:09;;;;;;;;;;;;;;;;;;10240887;28;20467;-62
2021/07/28 20:34:06;;;;;;;;;;;;;;;;;;10239288;28;20012;-63
2021/07/28 20:39:04;;;;;;;;;;;;;;;;;;10235467;28;20276;-61
2021/07/28 20:44:01;;;;;;;;;;;;;;;;;;10242964;28;20021;-62
2021/07/28 20:48:58;;;;;;;;;;;;;;;;;;10240887;28;19994;-62
2021/07/28 20:53:56;;;;;;;;;;;;;;;;;;10245537;28;20374;-63
2021/07/28 20:58:53;;;;;;;;;;;;;;;;;;10236821;28;20295;-63
2021/07/28 21:03:50;;;;;;;;;;;;;;;;;;10247891;28;20352;-63
2021/07/28 21:08:48;;;;;;;;;;;;;;;;;;10240324;28;20017;-62
2021/07/28 21:13:45;;;;;;;;;;;;;;;;;;10233472;28;19922;-62
2021/07/28 21:18:42;;;;;;;;;;;;;;;;;;10248551;28;19917;-63
2021/07/28 21:23:39;;;;;;;;;;;;;;;;;;10244921;28;20009;-63
2021/07/28 21:28:37;;;;;;;;;;;;;;;;;;10240893;28;20276;-62
2021/07/28 21:33:34;;;;;;;;;;;;;;;;;;10253671;28;19913;-63
2021/07/28 21:38:32;;;;;;;;;;;;;;;;;;10252555;28;20314;-65
2021/07/28 21:43:30;;;;;;;;;;;;;;;;;;10238917;28;19925;-66
2021/07/28 21:48:27;;;;;;;;;;;;;;;;;;10235507;28;19922;-65
2021/07/28 21:53:26;;;;;;;;;;;;;;;;;;10244222;28;19930;-65
2021/07/28 21:58:23;;;;;;;;;;;;;;;;;;10249033;28;19909;-66
2021/07/28 22:03:20;;;;;;;;;;;;;;;;;;10245652;28;20232;-65
2021/07/28 22:08:18;;;;;;;;;;;;;;;;;;10240240;28;20019;-65
2021/07/28 22:13:15;;;;;;;;;;;;;;;;;;10249398;28;20399;-66
2021/07/28 22:18:12;;;;;;;;;;;;;;;;;;10241767;28;20421;-66
2021/07/28 22:23:10;;;;;;;;;;;;;;;;;;10252757;28;19925;-65
2021/07/28 22:28:07;;;;;;;;;;;;;;;;;;10242582;28;20375;-66
2021/07/28 22:33:04;;;;;;;;;;;;;;;;;;10247136;28;19918;-65
2021/07/28 22:38:01;;;;;;;;;;;;;;;;;;10248271;28;20458;-65
2021/07/28 22:42:59;;;;;;;;;;;;;;;;;;10240747;28;20657;-66
2021/07/28 22:58:19;;;;;;;;;;;;;;;;;;10233924;28;19987;-65
2021/07/28 23:08:32;;;;;;;;;;;;;;;;;;10239055;28;19929;-66
2021/07/28 23:13:29;;;;;;;;;;;;;;;;;;10239478;28;20269;-66
2021/07/28 23:18:26;;;;;;;;;;;;;;;;;;10243918;28;20019;-66
2021/07/28 23:23:25;;;;;;;;;;;;;;;;;;10245772;28;20414;-66
2021/07/28 23:28:22;;;;;;;;;;;;;;;;;;10240127;28;19964;-66
2021/07/28 23:33:19;;;;;;;;;;;;;;;;;;10240594;28;20436;-66
2021/07/28 23:38:16;;;;;;;;;;;;;;;;;;10242785;28;19929;-66
2021/07/28 23:43:14;;;;;;;;;;;;;;;;;;10247842;28;20282;-66
2021/07/28 23:48:11;;;;;;;;;;;;;;;;;;10243158;28;19925;-66
2021/07/28 23:53:08;;;;;;;;;;;;;;;;;;10234045;28;20148;-65
2021/07/28 23:58:06;;;;;;;;;;;;;;;;;;10245972;28;19917;-66
